createdAt,value
2023-03-27T00:01:27.942Z,10.80
2023-03-27T00:03:55.659Z,10.70
2023-03-27T00:06:25.114Z,10.80
2023-03-27T00:08:52.798Z,10.80
2023-03-27T00:11:21.916Z,10.90
2023-03-27T00:13:51.352Z,10.90
2023-03-27T00:16:21.684Z,10.90
2023-03-27T00:18:49.008Z,10.90
2023-03-27T00:21:16.027Z,10.90
2023-03-27T00:23:42.975Z,10.80
2023-03-27T00:26:12.023Z,10.80
2023-03-27T00:28:39.361Z,10.90
2023-03-27T00:31:11.701Z,10.80
2023-03-27T00:33:38.896Z,10.80
2023-03-27T00:36:06.351Z,10.80
2023-03-27T00:38:34.069Z,10.70
2023-03-27T00:41:01.664Z,10.70
2023-03-27T00:43:34.234Z,10.70
2023-03-27T00:46:55.298Z,10.70
2023-03-27T00:49:23.854Z,10.70
2023-03-27T00:51:53.156Z,10.70
2023-03-27T00:54:30.112Z,10.70
2023-03-27T00:57:00.296Z,10.70
2023-03-27T00:59:31.916Z,10.80
2023-03-27T01:02:01.829Z,10.70
2023-03-27T01:04:31.487Z,10.60
2023-03-27T01:06:59.199Z,10.60
2023-03-27T01:09:27.252Z,10.60
2023-03-27T01:11:57.076Z,10.70
2023-03-27T01:14:29.690Z,10.70
2023-03-27T01:17:38.496Z,10.70
2023-03-27T01:20:14.415Z,10.60
2023-03-27T01:22:54.342Z,10.60
2023-03-27T01:25:42.131Z,10.50
2023-03-27T01:28:20.976Z,10.40
2023-03-27T01:30:54.907Z,10.50
2023-03-27T01:33:30.091Z,10.40
2023-03-27T01:36:18.725Z,10.30
2023-03-27T01:39:16.202Z,10.30
2023-03-27T01:41:51.745Z,10.30
2023-03-27T01:44:43.655Z,10.30
2023-03-27T01:47:24.150Z,10.20
2023-03-27T01:49:58.009Z,10.20
2023-03-27T01:52:31.594Z,10.30
2023-03-27T01:55:05.206Z,10.30
2023-03-27T01:57:49.215Z,10.30
2023-03-27T02:00:22.658Z,10.20
2023-03-27T02:03:17.737Z,10.30
2023-03-27T02:06:00.479Z,10.30
2023-03-27T02:08:55.213Z,10.30
2023-03-27T02:11:26.335Z,10.20
2023-03-27T02:14:06.272Z,10.20
2023-03-27T02:16:37.997Z,10.30
2023-03-27T02:19:22.288Z,10.40
2023-03-27T02:21:49.700Z,10.40
2023-03-27T02:24:19.951Z,10.50
2023-03-27T02:26:52.812Z,10.50
2023-03-27T02:29:31.327Z,10.40
2023-03-27T02:32:19.844Z,10.40
2023-03-27T02:35:20.300Z,10.30
2023-03-27T02:38:02.292Z,10.40
2023-03-27T02:40:41.222Z,10.40
2023-03-27T02:43:14.907Z,10.30
2023-03-27T02:45:45.489Z,10.30
2023-03-27T02:48:21.620Z,10.20
2023-03-27T02:51:01.287Z,10.10
2023-03-27T02:53:32.507Z,10.20
2023-03-27T02:56:03.582Z,10.20
2023-03-27T02:58:45.218Z,10.20
2023-03-27T03:01:16.717Z,10.30
2023-03-27T03:03:53.835Z,10.30
2023-03-27T03:06:22.883Z,10.30
2023-03-27T03:08:49.827Z,10.30
2023-03-27T03:11:16.719Z,10.20
2023-03-27T03:13:43.665Z,10.20
2023-03-27T03:16:10.892Z,10.30
2023-03-27T03:18:37.907Z,10.30
2023-03-27T03:21:05.863Z,10.30
2023-03-27T03:23:33.127Z,10.30
2023-03-27T03:26:00.002Z,10.30
2023-03-27T03:28:26.901Z,10.30
2023-03-27T03:30:55.064Z,10.30
2023-03-27T03:33:22.220Z,10.10
2023-03-27T03:35:50.715Z,10.20
2023-03-27T03:38:27.258Z,10.10
2023-03-27T03:40:55.929Z,10.10
2023-03-27T03:43:24.725Z,10.10
2023-03-27T03:45:52.643Z,10.10
2023-03-27T03:48:20.864Z,10.10
2023-03-27T03:50:48.867Z,10.20
2023-03-27T03:53:17.755Z,10.20
2023-03-27T03:55:45.793Z,10.20
2023-03-27T03:58:12.934Z,10.30
2023-03-27T04:00:40.446Z,10.20
2023-03-27T04:03:09.156Z,10.20
2023-03-27T04:05:37.513Z,10.20
2023-03-27T04:08:08.412Z,10.20
2023-03-27T04:10:39.203Z,10.20
2023-03-27T04:13:07.043Z,10.20
2023-03-27T04:15:34.051Z,10.20
2023-03-27T04:18:01.240Z,10.20
2023-03-27T04:20:28.314Z,10.10
2023-03-27T04:22:56.170Z,10.10
2023-03-27T04:25:24.524Z,10.10
2023-03-27T04:27:51.729Z,10.10
2023-03-27T04:30:23.970Z,10.10
2023-03-27T04:32:54.192Z,10.10
2023-03-27T04:35:22.087Z,10.10
2023-03-27T04:37:50.388Z,10.10
2023-03-27T04:40:20.985Z,10.10
2023-03-27T04:42:50.261Z,10.10
2023-03-27T04:45:22.798Z,10.00
2023-03-27T04:47:49.770Z,10.00
2023-03-27T04:50:17.036Z,10.00
2023-03-27T04:52:44.150Z,10.00
2023-03-27T04:55:12.370Z,10.10
2023-03-27T04:57:39.882Z,10.10
2023-03-27T05:00:15.848Z,10.00
2023-03-27T05:02:43.099Z,10.00
2023-03-27T05:05:10.487Z,10.00
2023-03-27T05:07:38.038Z,10.00
2023-03-27T05:10:06.350Z,10.00
2023-03-27T05:12:33.461Z,10.00
2023-03-27T05:15:03.039Z,9.90
2023-03-27T05:17:30.198Z,9.90
2023-03-27T05:19:57.241Z,9.90
2023-03-27T05:22:24.211Z,9.90
2023-03-27T05:24:51.794Z,9.90
2023-03-27T05:27:19.460Z,9.80
2023-03-27T05:29:47.661Z,9.80
2023-03-27T05:32:14.928Z,9.80
2023-03-27T05:34:42.605Z,9.80
2023-03-27T05:37:09.867Z,9.80
2023-03-27T05:39:37.022Z,9.80
2023-03-27T05:42:04.301Z,9.80
2023-03-27T05:44:31.320Z,9.80
2023-03-27T05:46:59.144Z,9.80
2023-03-27T05:49:26.013Z,9.70
2023-03-27T05:51:52.892Z,9.70
2023-03-27T05:54:19.855Z,9.70
2023-03-27T05:56:46.808Z,9.70
2023-03-27T05:59:13.814Z,9.80
2023-03-27T06:01:40.806Z,9.80
2023-03-27T06:04:09.647Z,9.90
2023-03-27T06:06:36.727Z,9.80
2023-03-27T06:09:03.940Z,9.80
2023-03-27T06:11:30.912Z,9.80
2023-03-27T06:13:58.742Z,9.80
2023-03-27T06:16:26.230Z,9.80
2023-03-27T06:18:53.281Z,9.90
2023-03-27T06:21:20.940Z,9.90
2023-03-27T06:23:47.985Z,9.90
2023-03-27T06:26:15.668Z,9.90
2023-03-27T06:28:42.698Z,9.90
2023-03-27T06:31:09.963Z,9.90
2023-03-27T06:33:37.310Z,9.90
2023-03-27T06:36:05.431Z,9.90
2023-03-27T06:38:33.124Z,9.90
2023-03-27T06:41:00.452Z,9.90
2023-03-27T06:43:27.426Z,9.90
2023-03-27T06:45:54.710Z,10.00
2023-03-27T06:48:22.571Z,10.00
2023-03-27T06:50:51.604Z,10.00
2023-03-27T06:55:50.539Z,10.00
2023-03-27T06:58:19.296Z,10.10
2023-03-27T07:00:49.046Z,10.00
2023-03-27T07:03:16.630Z,10.10
2023-03-27T07:05:43.845Z,10.00
2023-03-27T07:10:50.613Z,10.00
2023-03-27T07:13:23.592Z,10.00
2023-03-27T07:15:51.734Z,10.10
2023-03-27T07:18:18.705Z,10.10
2023-03-27T07:20:47.410Z,10.10
2023-03-27T07:23:14.323Z,10.10
2023-03-27T07:25:41.190Z,10.10
2023-03-27T07:28:15.068Z,10.10
2023-03-27T07:30:42.522Z,10.10
2023-03-27T07:33:10.663Z,10.10
2023-03-27T07:35:45.462Z,10.10
2023-03-27T07:38:12.686Z,10.10
2023-03-27T07:40:40.790Z,10.10
2023-03-27T07:43:08.217Z,10.10
2023-03-27T07:45:36.350Z,10.10
2023-03-27T07:48:08.850Z,10.10
2023-03-27T07:50:37.666Z,10.10
2023-03-27T07:53:06.553Z,10.10
2023-03-27T07:55:37.005Z,10.10
2023-03-27T07:58:04.330Z,10.10
2023-03-27T08:00:32.617Z,10.10
2023-03-27T08:03:07.620Z,10.10
2023-03-27T08:05:35.421Z,10.10
2023-03-27T08:08:02.381Z,10.00
2023-03-27T08:10:29.567Z,10.00
2023-03-27T08:12:57.206Z,10.00
2023-03-27T08:15:25.343Z,10.00
2023-03-27T08:17:55.147Z,10.10
2023-03-27T08:20:24.262Z,10.00
2023-03-27T08:22:54.085Z,10.10
2023-03-27T08:25:24.417Z,10.10
2023-03-27T08:27:51.317Z,10.00
2023-03-27T08:30:19.208Z,10.00
2023-03-27T08:32:46.598Z,10.00
2023-03-27T08:35:13.737Z,10.00
2023-03-27T08:37:41.680Z,9.90
2023-03-27T08:40:19.406Z,9.90
2023-03-27T08:42:51.578Z,9.90
2023-03-27T08:45:31.962Z,9.90
2023-03-27T08:48:09.836Z,9.90
2023-03-27T08:50:48.183Z,9.90
2023-03-27T08:53:41.596Z,9.90
2023-03-27T08:56:16.375Z,9.90
2023-03-27T08:58:44.884Z,9.90
2023-03-27T09:01:34.214Z,9.90
2023-03-27T09:04:07.462Z,9.90
2023-03-27T09:07:01.309Z,9.90
2023-03-27T09:09:55.630Z,9.90
2023-03-27T09:12:44.090Z,9.90
2023-03-27T09:15:19.175Z,9.90
2023-03-27T09:17:51.319Z,9.80
2023-03-27T09:20:25.679Z,9.90
2023-03-27T09:23:03.462Z,9.90
2023-03-27T09:25:38.095Z,9.90
2023-03-27T09:28:19.370Z,9.90
2023-03-27T09:30:46.451Z,9.80
2023-03-27T09:33:13.753Z,9.70
2023-03-27T09:35:41.209Z,9.60
2023-03-27T09:38:35.730Z,9.60
2023-03-27T09:41:17.382Z,9.50
2023-03-27T09:44:06.769Z,9.50
2023-03-27T09:46:38.068Z,9.50
2023-03-27T09:49:20.942Z,9.50
2023-03-27T09:51:53.498Z,9.50
2023-03-27T09:54:24.888Z,9.50
2023-03-27T09:57:15.187Z,9.50
2023-03-27T10:00:01.304Z,9.50
2023-03-27T10:02:30.825Z,9.50
2023-03-27T10:05:12.284Z,9.50
2023-03-27T10:07:41.571Z,9.50
2023-03-27T10:10:12.186Z,9.50
2023-03-27T10:12:40.271Z,9.50
2023-03-27T10:15:32.819Z,9.50
2023-03-27T10:18:02.670Z,9.50
2023-03-27T10:20:29.688Z,9.40
2023-03-27T10:23:01.931Z,9.40
2023-03-27T10:25:35.063Z,9.40
2023-03-27T10:28:18.165Z,9.40
2023-03-27T10:30:45.289Z,9.40
2023-03-27T10:33:12.278Z,9.40
2023-03-27T10:35:43.698Z,9.50
2023-03-27T10:38:17.080Z,9.50
2023-03-27T10:40:49.845Z,9.60
2023-03-27T10:43:40.255Z,9.60
2023-03-27T10:46:14.608Z,9.60
2023-03-27T10:49:07.975Z,9.60
2023-03-27T10:51:51.565Z,9.60
2023-03-27T10:54:51.279Z,9.60
2023-03-27T10:57:21.823Z,9.50
2023-03-27T11:00:01.976Z,9.60
2023-03-27T11:03:06.698Z,9.60
2023-03-27T11:05:38.997Z,9.60
2023-03-27T11:08:29.563Z,9.60
2023-03-27T11:11:01.301Z,9.60
2023-03-27T11:13:34.061Z,9.60
2023-03-27T11:16:38.714Z,9.70
2023-03-27T11:19:11.476Z,9.70
2023-03-27T11:22:21.698Z,9.80
2023-03-27T11:25:19.890Z,9.80
2023-03-27T11:28:17.537Z,9.80
2023-03-27T11:31:12.933Z,9.70
2023-03-27T11:33:49.149Z,9.70
2023-03-27T11:36:39.792Z,9.70
2023-03-27T11:39:36.240Z,9.70
2023-03-27T11:42:16.588Z,9.60
2023-03-27T11:44:43.831Z,9.60
2023-03-27T11:47:32.276Z,9.60
2023-03-27T11:50:17.366Z,9.50
2023-03-27T11:53:21.559Z,9.50
2023-03-27T11:56:03.517Z,9.50
2023-03-27T11:58:58.386Z,9.40
2023-03-27T12:01:47.499Z,9.40
2023-03-27T12:04:30.464Z,9.40
2023-03-27T12:09:59.811Z,9.40
2023-03-27T12:12:40.374Z,9.40
2023-03-27T12:15:35.408Z,9.30
2023-03-27T12:18:35.791Z,9.30
2023-03-27T12:21:21.867Z,9.20
2023-03-27T12:23:57.819Z,9.30
2023-03-27T12:26:43.882Z,9.20
2023-03-27T12:29:35.350Z,9.10
2023-03-27T12:32:27.163Z,9.20
2023-03-27T12:35:00.719Z,9.20
2023-03-27T12:37:40.211Z,9.20
2023-03-27T12:40:32.159Z,9.30
2023-03-27T12:43:20.863Z,9.30
2023-03-27T12:46:13.238Z,9.40
2023-03-27T12:48:57.885Z,9.50
2023-03-27T12:51:51.392Z,9.60
2023-03-27T12:54:30.016Z,9.60
2023-03-27T12:57:09.095Z,9.70
2023-03-27T12:59:40.049Z,9.70
2023-03-27T13:02:38.487Z,9.80
2023-03-27T13:05:27.506Z,9.70
2023-03-27T13:08:15.041Z,9.70
2023-03-27T13:10:57.158Z,9.60
2023-03-27T13:13:53.788Z,9.60
2023-03-27T13:16:44.963Z,9.60
2023-03-27T13:19:33.720Z,9.60
2023-03-27T13:22:15.821Z,9.60
2023-03-27T13:24:48.839Z,9.60
2023-03-27T13:27:15.712Z,9.60
2023-03-27T13:29:48.122Z,9.60
2023-03-27T13:32:37.841Z,9.60
2023-03-27T13:35:32.984Z,9.60
2023-03-27T13:38:00.750Z,9.50
2023-03-27T13:40:27.853Z,9.40
2023-03-27T13:43:10.505Z,9.20
2023-03-27T13:45:56.031Z,9.20
2023-03-27T13:48:54.015Z,9.10
2023-03-27T13:51:46.814Z,9.10
2023-03-27T13:54:32.233Z,9.00
2023-03-27T13:57:27.657Z,8.90
2023-03-27T14:00:28.811Z,8.90
2023-03-27T14:03:08.088Z,8.80
2023-03-27T14:05:55.344Z,8.70
2023-03-27T14:08:41.603Z,8.60
2023-03-27T14:11:09.184Z,8.40
2023-03-27T14:13:47.961Z,8.40
2023-03-27T14:16:45.842Z,8.30
2023-03-27T14:19:40.572Z,8.40
2023-03-27T14:22:20.033Z,8.40
2023-03-27T14:24:56.962Z,8.30
2023-03-27T14:27:24.762Z,8.30
2023-03-27T14:30:14.599Z,8.20
2023-03-27T14:32:43.205Z,8.20
2023-03-27T14:35:44.200Z,8.10
2023-03-27T14:38:23.386Z,8.10
2023-03-27T14:40:52.440Z,8.10
2023-03-27T14:43:22.059Z,8.00
2023-03-27T14:45:54.482Z,8.00
2023-03-27T14:48:23.051Z,8.00
2023-03-27T14:50:54.368Z,7.90
2023-03-27T14:53:26.790Z,7.90
2023-03-27T14:55:55.557Z,7.90
2023-03-27T14:58:24.780Z,7.80
2023-03-27T15:00:58.101Z,7.80
2023-03-27T15:03:30.213Z,7.70
2023-03-27T15:06:13.562Z,7.60
2023-03-27T15:08:41.668Z,7.60
2023-03-27T15:11:15.933Z,7.40
2023-03-27T15:13:45.294Z,7.30
2023-03-27T15:16:22.303Z,7.40
2023-03-27T15:19:00.476Z,7.40
2023-03-27T15:21:45.206Z,7.30
2023-03-27T15:24:18.375Z,7.30
2023-03-27T15:26:48.256Z,7.10
2023-03-27T15:29:18.743Z,7.10
2023-03-27T15:31:49.588Z,7.00
2023-03-27T15:34:23.941Z,7.00
2023-03-27T15:36:58.219Z,7.00
2023-03-27T15:39:26.708Z,6.90
2023-03-27T15:42:03.262Z,6.90
2023-03-27T15:44:33.352Z,6.90
2023-03-27T15:47:01.221Z,6.80
2023-03-27T15:49:37.621Z,6.80
2023-03-27T15:52:31.687Z,6.70
2023-03-27T15:55:00.370Z,6.70
2023-03-27T15:57:33.225Z,6.70
2023-03-27T16:00:14.791Z,6.60
2023-03-27T16:02:42.792Z,6.50
2023-03-27T16:05:18.248Z,6.60
2023-03-27T16:07:49.300Z,6.50
2023-03-27T16:10:33.997Z,6.50
2023-03-27T16:13:03.248Z,6.50
2023-03-27T16:15:41.939Z,6.40
2023-03-27T16:18:24.691Z,6.40
2023-03-27T16:20:52.043Z,6.40
2023-03-27T16:23:19.290Z,6.40
2023-03-27T16:25:46.627Z,6.40
2023-03-27T16:28:14.916Z,6.30
2023-03-27T16:30:42.366Z,6.30
2023-03-27T16:33:22.988Z,6.30
2023-03-27T16:35:51.365Z,6.30
2023-03-27T16:38:18.676Z,6.30
2023-03-27T16:40:46.662Z,6.20
2023-03-27T16:43:15.063Z,6.20
2023-03-27T16:45:42.548Z,6.10
2023-03-27T16:48:11.531Z,6.10
2023-03-27T16:50:39.068Z,6.10
2023-03-27T16:53:06.315Z,6.10
2023-03-27T16:55:33.317Z,6.10
2023-03-27T16:58:00.709Z,6.10
2023-03-27T17:00:27.899Z,6.10
2023-03-27T17:02:55.258Z,6.10
2023-03-27T17:05:22.946Z,6.10
2023-03-27T17:07:50.506Z,6.10
2023-03-27T17:10:18.291Z,6.10
2023-03-27T17:12:45.583Z,6.10
2023-03-27T17:15:16.758Z,6.10
2023-03-27T17:17:45.248Z,6.10
2023-03-27T17:20:13.176Z,6.10
2023-03-27T17:22:40.586Z,6.10
2023-03-27T17:25:10.156Z,6.10
2023-03-27T17:27:37.936Z,6.20
2023-03-27T17:30:05.870Z,6.20
2023-03-27T17:32:32.906Z,6.20
2023-03-27T17:35:00.330Z,6.20
2023-03-27T17:37:27.510Z,6.20
2023-03-27T17:39:55.002Z,6.20
2023-03-27T17:42:25.343Z,6.10
2023-03-27T17:44:53.188Z,6.20
2023-03-27T17:47:21.911Z,6.20
2023-03-27T17:49:49.917Z,6.10
2023-03-27T17:52:18.576Z,6.10
2023-03-27T17:54:47.037Z,6.10
2023-03-27T17:57:17.744Z,6.00
2023-03-27T17:59:46.536Z,6.00
2023-03-27T18:02:21.670Z,6.00
2023-03-27T18:04:52.806Z,6.00
2023-03-27T18:07:21.870Z,5.90
2023-03-27T18:09:49.825Z,5.90
2023-03-27T18:12:18.478Z,5.90
2023-03-27T18:14:46.225Z,5.80
2023-03-27T18:17:16.164Z,5.70
2023-03-27T18:19:44.271Z,5.70
2023-03-27T18:22:12.106Z,5.60
2023-03-27T18:24:40.410Z,5.60
2023-03-27T18:27:08.236Z,5.60
2023-03-27T18:29:36.013Z,5.60
2023-03-27T18:32:04.905Z,5.50
2023-03-27T18:34:33.020Z,5.50
2023-03-27T18:37:01.658Z,5.40
2023-03-27T18:39:29.606Z,5.40
2023-03-27T18:42:01.950Z,5.30
2023-03-27T18:44:29.653Z,5.30
2023-03-27T18:46:58.326Z,5.30
2023-03-27T18:49:25.838Z,5.20
2023-03-27T18:51:53.684Z,5.30
2023-03-27T18:54:23.227Z,5.30
2023-03-27T18:56:52.580Z,5.20
2023-03-27T18:59:20.777Z,5.20
2023-03-27T19:01:49.176Z,5.20
2023-03-27T19:04:19.797Z,5.20
2023-03-27T19:06:47.866Z,5.10
2023-03-27T19:09:23.371Z,5.10
2023-03-27T19:11:55.779Z,5.10
2023-03-27T19:14:23.842Z,5.10
2023-03-27T19:16:55.091Z,5.10
2023-03-27T19:19:24.081Z,5.10
2023-03-27T19:21:52.386Z,5.00
2023-03-27T19:24:21.023Z,5.10
2023-03-27T19:26:49.151Z,5.10
2023-03-27T19:29:18.483Z,5.00
2023-03-27T19:31:46.997Z,5.00
2023-03-27T19:34:17.076Z,4.90
2023-03-27T19:36:44.651Z,4.90
2023-03-27T19:39:12.781Z,4.90
2023-03-27T19:41:42.037Z,4.90
2023-03-27T19:44:10.157Z,4.90
2023-03-27T19:46:40.089Z,4.80
2023-03-27T19:49:08.611Z,4.80
2023-03-27T19:51:36.753Z,4.80
2023-03-27T19:54:04.672Z,4.80
2023-03-27T19:56:32.549Z,4.80
2023-03-27T19:59:01.843Z,4.80
2023-03-27T20:01:29.668Z,4.80
2023-03-27T20:04:00.328Z,4.80
2023-03-27T20:06:29.480Z,4.80
2023-03-27T20:09:01.618Z,4.80
2023-03-27T20:11:29.605Z,4.70
2023-03-27T20:13:57.346Z,4.70
2023-03-27T20:16:27.892Z,4.70
2023-03-27T20:19:03.995Z,4.70
2023-03-27T20:21:42.314Z,4.70
2023-03-27T20:24:11.883Z,4.70
2023-03-27T20:26:42.127Z,4.70
2023-03-27T20:29:14.458Z,4.70
2023-03-27T20:31:42.438Z,4.70
2023-03-27T20:34:10.922Z,4.70
2023-03-27T20:36:40.163Z,4.70
2023-03-27T20:39:08.583Z,4.70
2023-03-27T20:41:39.450Z,4.70
2023-03-27T20:44:16.089Z,4.70
2023-03-27T20:46:51.315Z,4.70
2023-03-27T20:51:59.866Z,4.70
2023-03-27T20:54:27.527Z,4.60
2023-03-27T20:56:54.541Z,4.60
2023-03-27T20:59:21.706Z,4.50
2023-03-27T21:01:48.773Z,4.50
2023-03-27T21:04:15.903Z,4.60
2023-03-27T21:06:43.557Z,4.60
2023-03-27T21:09:13.897Z,4.60
2023-03-27T21:11:40.929Z,4.60
2023-03-27T21:14:07.967Z,4.50
2023-03-27T21:16:35.077Z,4.50
2023-03-27T21:19:02.057Z,4.60
2023-03-27T21:21:29.120Z,4.50
2023-03-27T21:23:56.035Z,4.60
2023-03-27T21:26:22.976Z,4.50
2023-03-27T21:28:52.931Z,4.40
2023-03-27T21:31:20.883Z,4.50
2023-03-27T21:33:47.867Z,4.50
2023-03-27T21:36:15.162Z,4.40
2023-03-27T21:38:42.178Z,4.50
2023-03-27T21:41:14.838Z,4.50
2023-03-27T21:43:41.782Z,4.50
2023-03-27T21:46:08.976Z,4.50
2023-03-27T21:48:35.981Z,4.40
2023-03-27T21:51:05.428Z,4.40
2023-03-27T21:53:32.408Z,4.40
2023-03-27T21:55:59.688Z,4.40
2023-03-27T21:58:27.255Z,4.40
2023-03-27T22:00:57.439Z,4.30
2023-03-27T22:03:25.775Z,4.30
2023-03-27T22:06:01.428Z,4.30
2023-03-27T22:08:37.529Z,4.30
2023-03-27T22:11:04.727Z,4.30
2023-03-27T22:13:31.606Z,4.30
2023-03-27T22:15:58.858Z,4.30
2023-03-27T22:18:26.271Z,4.30
2023-03-27T22:20:53.226Z,4.30
2023-03-27T22:23:20.540Z,4.20
2023-03-27T22:26:03.437Z,4.20
2023-03-27T22:28:30.364Z,4.20
2023-03-27T22:30:57.239Z,4.20
2023-03-27T22:33:24.204Z,4.20
2023-03-27T22:35:51.702Z,4.30
2023-03-27T22:38:18.574Z,4.20
2023-03-27T22:40:45.536Z,4.20
2023-03-27T22:43:22.337Z,4.20
2023-03-27T22:45:50.896Z,4.20
2023-03-27T22:48:17.787Z,4.10
2023-03-27T22:50:45.903Z,4.10
2023-03-27T22:53:12.784Z,4.10
2023-03-27T22:55:39.723Z,4.10
2023-03-27T22:58:06.603Z,4.10
2023-03-27T23:00:33.490Z,4.10
2023-03-27T23:03:00.653Z,4.20
2023-03-27T23:05:27.619Z,4.10
2023-03-27T23:07:54.486Z,4.10
2023-03-27T23:10:21.461Z,4.10
2023-03-27T23:12:48.339Z,4.10
2023-03-27T23:15:15.457Z,4.10
2023-03-27T23:17:42.363Z,4.10
2023-03-27T23:20:09.505Z,4.10
2023-03-27T23:22:37.301Z,4.00
2023-03-27T23:25:04.460Z,4.00
2023-03-27T23:27:31.440Z,4.00
2023-03-27T23:29:58.504Z,4.00
2023-03-27T23:32:27.539Z,4.00
2023-03-27T23:34:54.436Z,4.00
2023-03-27T23:37:22.069Z,4.00
2023-03-27T23:39:48.948Z,4.00
2023-03-27T23:42:15.890Z,4.00
2023-03-27T23:44:42.769Z,4.00
2023-03-27T23:47:10.197Z,4.00
2023-03-27T23:49:37.485Z,3.90
2023-03-27T23:52:04.479Z,3.90
2023-03-27T23:54:31.448Z,3.90
2023-03-27T23:56:58.365Z,3.90
2023-03-27T23:59:25.326Z,3.90
